createdAt,value
2023-01-30T00:00:41.125Z,3.70
2023-01-30T00:02:43.630Z,3.70
2023-01-30T00:04:46.268Z,3.70
2023-01-30T00:06:48.817Z,3.70
2023-01-30T00:08:51.703Z,3.80
2023-01-30T00:10:54.204Z,3.70
2023-01-30T00:12:57.034Z,3.70
2023-01-30T00:14:59.557Z,3.80
2023-01-30T00:17:02.031Z,3.70
2023-01-30T00:19:04.540Z,3.80
2023-01-30T00:21:07.880Z,3.80
2023-01-30T00:23:10.478Z,3.80
2023-01-30T00:25:13.153Z,3.80
2023-01-30T00:27:15.923Z,3.80
2023-01-30T00:29:18.504Z,3.80
2023-01-30T00:31:21.132Z,3.80
2023-01-30T00:33:26.473Z,3.80
2023-01-30T00:35:29.080Z,3.80
2023-01-30T00:37:31.653Z,3.80
2023-01-30T00:39:34.166Z,3.90
2023-01-30T00:41:55.683Z,3.90
2023-01-30T00:44:16.521Z,3.90
2023-01-30T00:46:40.394Z,4.00
2023-01-30T00:48:42.882Z,4.00
2023-01-30T00:50:45.510Z,4.10
2023-01-30T00:52:48.081Z,4.00
2023-01-30T00:54:51.873Z,4.00
2023-01-30T00:56:54.462Z,4.10
2023-01-30T00:58:58.915Z,4.10
2023-01-30T01:01:01.410Z,4.20
2023-01-30T01:03:04.546Z,4.20
2023-01-30T01:05:07.990Z,4.20
2023-01-30T01:07:10.982Z,4.30
2023-01-30T01:09:13.576Z,4.30
2023-01-30T01:11:18.175Z,4.30
2023-01-30T01:13:22.713Z,4.40
2023-01-30T01:15:26.189Z,4.40
2023-01-30T01:17:28.685Z,4.40
2023-01-30T01:19:31.600Z,4.40
2023-01-30T01:21:35.389Z,4.50
2023-01-30T01:23:37.865Z,4.50
2023-01-30T01:25:40.351Z,4.60
2023-01-30T01:27:42.987Z,4.60
2023-01-30T01:29:45.471Z,4.60
2023-01-30T01:31:48.116Z,4.50
2023-01-30T01:33:51.697Z,4.60
2023-01-30T01:35:55.919Z,4.60
2023-01-30T01:37:58.530Z,4.60
2023-01-30T01:40:19.200Z,4.60
2023-01-30T01:42:22.671Z,4.60
2023-01-30T01:44:25.342Z,4.70
2023-01-30T01:46:29.864Z,4.60
2023-01-30T01:48:34.235Z,4.60
2023-01-30T01:50:40.969Z,4.60
2023-01-30T01:52:43.740Z,4.60
2023-01-30T01:54:49.107Z,4.60
2023-01-30T01:56:51.687Z,4.60
2023-01-30T01:58:56.017Z,4.70
2023-01-30T02:00:59.534Z,4.60
2023-01-30T02:03:04.079Z,4.70
2023-01-30T02:05:08.995Z,4.70
2023-01-30T02:07:11.607Z,4.60
2023-01-30T02:09:14.179Z,4.70
2023-01-30T02:11:18.884Z,4.70
2023-01-30T02:13:21.886Z,4.70
2023-01-30T02:15:24.873Z,4.70
2023-01-30T02:17:27.434Z,4.80
2023-01-30T02:19:34.012Z,4.70
2023-01-30T02:21:45.492Z,4.70
2023-01-30T02:24:10.574Z,4.80
2023-01-30T02:26:38.675Z,4.70
2023-01-30T02:28:49.218Z,4.80
2023-01-30T02:31:13.865Z,4.70
2023-01-30T02:33:18.864Z,4.80
2023-01-30T02:35:25.257Z,4.80
2023-01-30T02:37:30.354Z,4.70
2023-01-30T02:39:35.383Z,4.80
2023-01-30T02:41:39.819Z,4.80
2023-01-30T02:43:44.875Z,4.80
2023-01-30T02:45:50.436Z,4.70
2023-01-30T02:47:55.519Z,4.80
2023-01-30T02:50:00.103Z,4.80
2023-01-30T02:52:03.621Z,4.90
2023-01-30T02:54:07.577Z,4.90
2023-01-30T02:56:10.211Z,4.80
2023-01-30T02:58:13.184Z,4.90
2023-01-30T03:00:17.737Z,4.90
2023-01-30T03:02:27.872Z,4.90
2023-01-30T03:04:49.599Z,4.90
2023-01-30T03:06:56.371Z,5.00
2023-01-30T03:09:02.775Z,5.00
2023-01-30T03:11:07.407Z,5.00
2023-01-30T03:13:12.579Z,5.00
2023-01-30T03:15:18.088Z,5.00
2023-01-30T03:17:23.592Z,5.00
2023-01-30T03:19:29.398Z,4.50
2023-01-30T03:21:32.005Z,5.00
2023-01-30T03:23:34.953Z,5.00
2023-01-30T03:25:39.481Z,5.00
2023-01-30T03:27:42.611Z,5.00
2023-01-30T03:29:45.278Z,5.00
2023-01-30T03:31:47.943Z,5.00
2023-01-30T03:33:51.196Z,5.10
2023-01-30T03:35:54.580Z,5.10
2023-01-30T03:37:57.946Z,5.10
2023-01-30T03:40:00.865Z,5.20
2023-01-30T03:42:03.742Z,5.20
2023-01-30T03:44:06.527Z,5.20
2023-01-30T03:46:09.101Z,5.20
2023-01-30T03:48:11.781Z,5.20
2023-01-30T03:50:14.542Z,5.20
2023-01-30T03:52:17.154Z,5.20
2023-01-30T03:54:20.440Z,5.20
2023-01-30T03:56:23.433Z,5.20
2023-01-30T03:58:26.056Z,5.20
2023-01-30T04:00:29.972Z,5.20
2023-01-30T04:02:32.955Z,5.20
2023-01-30T04:04:35.968Z,5.10
2023-01-30T04:06:39.172Z,5.10
2023-01-30T04:08:41.899Z,5.10
2023-01-30T04:10:46.200Z,5.10
2023-01-30T04:12:49.816Z,5.20
2023-01-30T04:14:52.758Z,5.20
2023-01-30T04:16:57.277Z,5.20
2023-01-30T04:19:01.672Z,5.20
2023-01-30T04:21:06.251Z,5.20
2023-01-30T04:23:10.665Z,5.10
2023-01-30T04:25:13.287Z,5.20
2023-01-30T04:27:15.989Z,5.20
2023-01-30T04:29:20.379Z,5.20
2023-01-30T04:31:24.102Z,5.20
2023-01-30T04:33:28.484Z,5.20
2023-01-30T04:35:31.272Z,5.20
2023-01-30T04:37:33.875Z,5.20
2023-01-30T04:39:36.471Z,5.10
2023-01-30T04:41:39.666Z,5.20
2023-01-30T04:43:42.271Z,5.20
2023-01-30T04:45:47.089Z,5.20
2023-01-30T04:47:50.069Z,5.20
2023-01-30T04:49:52.675Z,5.20
2023-01-30T04:51:55.231Z,5.20
2023-01-30T04:53:57.878Z,5.20
2023-01-30T04:56:01.710Z,5.30
2023-01-30T04:58:04.284Z,5.20
2023-01-30T05:00:08.827Z,5.20
2023-01-30T05:02:12.847Z,5.20
2023-01-30T05:04:15.507Z,5.20
2023-01-30T05:06:18.095Z,5.30
2023-01-30T05:08:20.581Z,5.30
2023-01-30T05:10:23.178Z,5.30
2023-01-30T05:12:25.670Z,5.30
2023-01-30T05:14:28.930Z,5.30
2023-01-30T05:16:31.522Z,5.30
2023-01-30T05:18:34.088Z,5.30
2023-01-30T05:20:36.581Z,5.20
2023-01-30T05:22:39.085Z,5.30
2023-01-30T05:24:41.682Z,5.40
2023-01-30T05:26:44.254Z,5.30
2023-01-30T05:28:51.149Z,5.30
2023-01-30T05:30:54.437Z,5.30
2023-01-30T05:32:58.152Z,5.30
2023-01-30T05:35:00.773Z,5.60
2023-01-30T05:37:03.242Z,5.40
2023-01-30T05:39:05.721Z,5.40
2023-01-30T05:41:08.751Z,5.40
2023-01-30T05:43:11.260Z,5.50
2023-01-30T05:45:13.786Z,5.40
2023-01-30T05:47:16.495Z,5.40
2023-01-30T05:49:19.066Z,5.40
2023-01-30T05:51:22.374Z,5.40
2023-01-30T05:53:26.750Z,5.50
2023-01-30T05:55:29.225Z,5.50
2023-01-30T05:57:31.723Z,5.50
2023-01-30T05:59:34.316Z,5.50
2023-01-30T06:01:36.775Z,5.50
2023-01-30T06:03:39.336Z,5.50
2023-01-30T06:05:41.948Z,5.60
2023-01-30T06:07:44.446Z,5.60
2023-01-30T06:09:46.936Z,5.50
2023-01-30T06:11:51.792Z,5.60
2023-01-30T06:13:55.005Z,5.60
2023-01-30T06:15:57.514Z,5.60
2023-01-30T06:18:00.146Z,5.60
2023-01-30T06:20:02.732Z,5.60
2023-01-30T06:22:05.300Z,5.60
2023-01-30T06:24:07.956Z,5.70
2023-01-30T06:26:12.586Z,5.60
2023-01-30T06:28:15.431Z,5.70
2023-01-30T06:30:18.430Z,5.70
2023-01-30T06:32:20.975Z,5.70
2023-01-30T06:34:23.502Z,5.70
2023-01-30T06:36:26.031Z,5.70
2023-01-30T06:38:28.537Z,5.70
2023-01-30T06:40:30.991Z,5.80
2023-01-30T06:42:33.495Z,5.80
2023-01-30T06:44:36.144Z,5.90
2023-01-30T06:46:38.610Z,6.00
2023-01-30T06:48:41.116Z,6.00
2023-01-30T06:50:45.388Z,6.00
2023-01-30T06:52:48.834Z,6.00
2023-01-30T06:54:51.617Z,6.00
2023-01-30T06:56:54.107Z,6.10
2023-01-30T06:58:56.594Z,6.10
2023-01-30T07:00:59.109Z,6.10
2023-01-30T07:03:01.714Z,6.10
2023-01-30T07:05:05.498Z,6.20
2023-01-30T07:07:07.963Z,6.20
2023-01-30T07:09:10.601Z,6.30
2023-01-30T07:11:13.075Z,6.30
2023-01-30T07:13:16.600Z,6.20
2023-01-30T07:15:19.490Z,6.30
2023-01-30T07:17:22.356Z,6.30
2023-01-30T07:19:24.834Z,6.30
2023-01-30T07:21:27.451Z,6.30
2023-01-30T07:23:29.940Z,6.30
2023-01-30T07:25:32.419Z,6.40
2023-01-30T07:27:34.905Z,6.40
2023-01-30T07:29:37.946Z,6.40
2023-01-30T07:31:40.482Z,6.40
2023-01-30T07:33:43.001Z,6.50
2023-01-30T07:35:45.609Z,6.50
2023-01-30T07:37:48.393Z,6.50
2023-01-30T07:39:50.915Z,6.50
2023-01-30T07:41:55.896Z,6.60
2023-01-30T07:43:57.741Z,6.60
2023-01-30T07:46:00.364Z,6.60
2023-01-30T07:48:02.848Z,6.60
2023-01-30T07:50:07.254Z,6.60
2023-01-30T07:52:09.747Z,6.40
2023-01-30T07:54:12.265Z,6.70
2023-01-30T07:56:16.739Z,6.70
2023-01-30T07:58:19.254Z,6.70
2023-01-30T08:00:22.323Z,6.70
2023-01-30T08:02:24.897Z,6.70
2023-01-30T08:04:27.444Z,6.70
2023-01-30T08:06:30.388Z,6.70
2023-01-30T08:08:33.017Z,6.80
2023-01-30T08:10:35.536Z,6.70
2023-01-30T08:12:38.004Z,6.80
2023-01-30T08:14:40.529Z,6.70
2023-01-30T08:16:43.170Z,6.70
2023-01-30T08:18:45.646Z,6.70
2023-01-30T08:20:48.202Z,6.70
2023-01-30T08:22:50.676Z,6.70
2023-01-30T08:24:53.211Z,6.70
2023-01-30T08:26:55.728Z,6.60
2023-01-30T08:28:58.211Z,6.60
2023-01-30T08:31:01.119Z,6.50
2023-01-30T08:33:03.849Z,6.20
2023-01-30T08:35:07.312Z,6.00
2023-01-30T08:37:09.814Z,5.90
2023-01-30T08:39:12.424Z,5.80
2023-01-30T08:41:14.922Z,5.80
2023-01-30T08:43:17.478Z,5.80
2023-01-30T08:45:19.984Z,5.80
2023-01-30T08:47:22.483Z,5.80
2023-01-30T08:49:25.019Z,5.90
2023-01-30T08:51:27.488Z,5.90
2023-01-30T08:53:30.003Z,5.90
2023-01-30T08:55:32.892Z,5.90
2023-01-30T08:57:35.650Z,5.90
2023-01-30T08:59:38.109Z,6.00
2023-01-30T09:01:40.588Z,6.00
2023-01-30T09:03:43.255Z,6.00
2023-01-30T09:05:45.832Z,6.00
2023-01-30T09:07:48.309Z,6.00
2023-01-30T09:09:50.895Z,6.00
2023-01-30T09:11:53.425Z,6.10
2023-01-30T09:13:55.975Z,6.10
2023-01-30T09:15:58.879Z,6.20
2023-01-30T09:18:01.380Z,6.20
2023-01-30T09:20:04.540Z,6.20
2023-01-30T09:22:07.173Z,6.20
2023-01-30T09:24:09.761Z,6.30
2023-01-30T09:26:12.342Z,6.30
2023-01-30T09:28:14.862Z,6.30
2023-01-30T09:30:18.911Z,6.30
2023-01-30T09:32:21.863Z,6.30
2023-01-30T09:34:26.966Z,6.40
2023-01-30T09:36:29.459Z,6.40
2023-01-30T09:38:31.979Z,6.50
2023-01-30T09:40:36.306Z,6.50
2023-01-30T09:42:43.226Z,6.50
2023-01-30T09:44:52.414Z,6.60
2023-01-30T09:46:56.748Z,6.60
2023-01-30T09:49:01.511Z,6.50
2023-01-30T09:51:11.636Z,6.50
2023-01-30T09:53:16.262Z,6.50
2023-01-30T09:55:20.515Z,6.50
2023-01-30T09:57:24.055Z,6.60
2023-01-30T09:59:28.379Z,6.50
2023-01-30T10:01:33.103Z,6.60
2023-01-30T10:03:37.509Z,6.60
2023-01-30T10:05:43.012Z,6.70
2023-01-30T10:07:49.419Z,6.60
2023-01-30T10:09:54.215Z,6.60
2023-01-30T10:12:00.786Z,6.60
2023-01-30T10:14:11.118Z,6.70
2023-01-30T10:16:15.657Z,6.70
2023-01-30T10:18:28.071Z,6.70
2023-01-30T10:20:33.507Z,6.70
2023-01-30T10:22:39.151Z,6.80
2023-01-30T10:24:45.359Z,6.90
2023-01-30T10:26:48.400Z,7.00
2023-01-30T10:29:06.177Z,7.10
2023-01-30T10:31:02.163Z,7.20
2023-01-30T10:33:06.817Z,7.10
2023-01-30T10:35:12.311Z,7.20
2023-01-30T10:37:17.559Z,7.10
2023-01-30T10:39:23.490Z,7.20
2023-01-30T10:41:27.949Z,7.10
2023-01-30T10:43:32.349Z,7.10
2023-01-30T10:45:37.111Z,7.10
2023-01-30T10:47:47.543Z,7.00
2023-01-30T10:49:50.254Z,7.00
2023-01-30T10:51:55.643Z,7.00
2023-01-30T10:54:00.299Z,7.00
2023-01-30T10:56:06.073Z,7.00
2023-01-30T10:58:12.941Z,7.00
2023-01-30T11:00:19.433Z,7.00
2023-01-30T11:02:25.415Z,7.00
2023-01-30T11:04:31.060Z,7.10
2023-01-30T11:06:34.011Z,7.10
2023-01-30T11:08:36.909Z,7.10
2023-01-30T11:10:39.410Z,7.10
2023-01-30T11:12:41.939Z,7.10
2023-01-30T11:14:51.871Z,7.10
2023-01-30T11:16:55.188Z,7.10
2023-01-30T11:19:19.698Z,7.10
2023-01-30T11:21:05.503Z,7.10
2023-01-30T11:23:09.483Z,7.10
2023-01-30T11:25:14.530Z,7.20
2023-01-30T11:27:18.382Z,7.10
2023-01-30T11:29:25.182Z,7.10
2023-01-30T11:31:40.829Z,7.10
2023-01-30T11:33:34.391Z,7.10
2023-01-30T11:35:40.633Z,7.10
2023-01-30T11:37:43.790Z,7.10
2023-01-30T11:39:50.865Z,7.10
2023-01-30T11:42:03.136Z,7.10
2023-01-30T11:44:05.604Z,7.20
2023-01-30T11:46:09.592Z,7.20
2023-01-30T11:48:28.704Z,7.20
2023-01-30T11:50:22.553Z,7.20
2023-01-30T11:52:26.274Z,7.30
2023-01-30T11:54:31.215Z,7.20
2023-01-30T11:56:35.271Z,7.10
2023-01-30T11:58:39.407Z,7.10
2023-01-30T12:00:43.488Z,7.00
2023-01-30T12:02:47.512Z,7.00
2023-01-30T12:04:53.229Z,7.00
2023-01-30T12:07:05.703Z,7.00
2023-01-30T12:09:13.359Z,7.00
2023-01-30T12:11:24.726Z,7.10
2023-01-30T12:13:33.755Z,7.10
2023-01-30T12:15:37.731Z,7.10
2023-01-30T12:17:42.216Z,7.10
2023-01-30T12:19:48.016Z,7.10
2023-01-30T12:21:53.911Z,7.20
2023-01-30T12:23:59.079Z,6.60
2023-01-30T12:26:03.520Z,7.40
2023-01-30T12:28:07.927Z,7.60
2023-01-30T12:30:13.261Z,7.70
2023-01-30T12:32:16.715Z,7.70
2023-01-30T12:34:19.523Z,7.80
2023-01-30T12:36:26.983Z,7.80
2023-01-30T12:38:34.124Z,7.80
2023-01-30T12:40:41.003Z,7.80
2023-01-30T12:42:50.388Z,7.80
2023-01-30T12:44:56.951Z,7.80
2023-01-30T12:47:07.358Z,7.80
2023-01-30T12:49:16.762Z,7.80
2023-01-30T12:51:22.881Z,7.70
2023-01-30T12:53:28.637Z,7.80
2023-01-30T12:55:34.702Z,7.70
2023-01-30T12:57:39.089Z,7.60
2023-01-30T12:59:46.119Z,7.70
2023-01-30T13:01:51.025Z,7.70
2023-01-30T13:03:56.014Z,7.70
2023-01-30T13:06:03.549Z,7.80
2023-01-30T13:08:18.068Z,7.80
2023-01-30T13:10:23.332Z,7.80
2023-01-30T13:12:29.053Z,7.80
2023-01-30T13:14:33.821Z,7.80
2023-01-30T13:16:38.532Z,7.70
2023-01-30T13:18:42.862Z,7.70
2023-01-30T13:20:49.519Z,7.60
2023-01-30T13:22:54.664Z,7.40
2023-01-30T13:25:00.632Z,7.30
2023-01-30T13:27:06.036Z,7.20
2023-01-30T13:29:12.223Z,7.20
2023-01-30T13:31:16.912Z,7.20
2023-01-30T13:33:21.741Z,7.30
2023-01-30T13:35:26.023Z,7.40
2023-01-30T13:37:29.181Z,7.50
2023-01-30T13:39:35.704Z,7.60
2023-01-30T13:41:40.112Z,7.60
2023-01-30T13:43:44.427Z,7.70
2023-01-30T13:45:48.243Z,7.80
2023-01-30T13:47:55.088Z,7.90
2023-01-30T13:49:59.846Z,8.00
2023-01-30T13:52:04.482Z,8.00
2023-01-30T13:54:09.271Z,8.10
2023-01-30T13:56:32.962Z,8.20
2023-01-30T13:58:24.583Z,8.20
2023-01-30T14:00:31.058Z,8.20
2023-01-30T14:02:33.875Z,8.10
2023-01-30T14:04:52.637Z,8.10
2023-01-30T14:06:56.916Z,8.10
2023-01-30T14:09:01.033Z,8.10
2023-01-30T14:11:03.679Z,8.20
2023-01-30T14:13:06.425Z,8.20
2023-01-30T14:15:21.500Z,8.10
2023-01-30T14:17:24.294Z,8.10
2023-01-30T14:19:52.015Z,8.10
2023-01-30T14:21:55.983Z,8.10
2023-01-30T14:24:00.289Z,8.10
2023-01-30T14:26:03.134Z,8.10
2023-01-30T14:28:23.430Z,8.10
2023-01-30T14:30:41.711Z,8.10
2023-01-30T14:32:55.102Z,8.00
2023-01-30T14:35:20.692Z,8.00
2023-01-30T14:37:31.961Z,7.90
2023-01-30T14:39:38.588Z,7.80
2023-01-30T14:41:41.230Z,7.70
2023-01-30T14:43:53.074Z,7.60
2023-01-30T14:45:56.095Z,7.20
2023-01-30T14:48:17.819Z,6.90
2023-01-30T14:50:22.517Z,6.60
2023-01-30T14:52:32.880Z,6.30
2023-01-30T14:54:42.143Z,6.10
2023-01-30T14:56:44.466Z,6.00
2023-01-30T14:58:56.304Z,5.80
2023-01-30T15:00:59.813Z,5.70
2023-01-30T15:03:04.203Z,5.70
2023-01-30T15:05:11.767Z,5.60
2023-01-30T15:07:17.271Z,5.60
2023-01-30T15:09:21.695Z,5.60
2023-01-30T15:11:25.962Z,5.60
2023-01-30T15:13:33.352Z,5.60
2023-01-30T15:15:37.984Z,5.60
2023-01-30T15:17:42.645Z,5.70
2023-01-30T15:19:50.471Z,5.70
2023-01-30T15:21:57.869Z,5.80
2023-01-30T15:24:06.952Z,5.90
2023-01-30T15:26:13.918Z,6.10
2023-01-30T15:28:20.246Z,6.10
2023-01-30T15:30:26.357Z,6.30
2023-01-30T15:32:29.805Z,6.40
2023-01-30T15:34:33.650Z,6.60
2023-01-30T15:36:36.563Z,6.60
2023-01-30T15:38:39.245Z,6.70
2023-01-30T15:40:41.868Z,6.70
2023-01-30T15:42:45.242Z,6.70
2023-01-30T15:44:52.006Z,6.90
2023-01-30T15:46:57.149Z,6.70
2023-01-30T15:49:03.815Z,6.80
2023-01-30T15:51:10.446Z,6.80
2023-01-30T15:53:14.144Z,6.80
2023-01-30T15:55:18.244Z,6.80
2023-01-30T15:57:23.351Z,6.90
2023-01-30T15:59:29.879Z,6.80
2023-01-30T16:01:32.746Z,6.80
2023-01-30T16:03:37.187Z,6.80
2023-01-30T16:05:42.030Z,6.90
2023-01-30T16:07:45.034Z,6.80
2023-01-30T16:10:06.381Z,6.80
2023-01-30T16:11:59.325Z,6.80
2023-01-30T16:14:01.841Z,6.90
2023-01-30T16:16:06.656Z,6.90
2023-01-30T16:18:12.023Z,6.80
2023-01-30T16:20:16.090Z,6.90
2023-01-30T16:22:19.799Z,6.80
2023-01-30T16:24:24.276Z,6.90
2023-01-30T16:26:27.038Z,6.90
2023-01-30T16:28:30.995Z,7.00
2023-01-30T16:30:33.711Z,7.00
2023-01-30T16:32:36.451Z,7.00
2023-01-30T16:34:39.453Z,7.00
2023-01-30T16:36:42.737Z,7.00
2023-01-30T16:38:45.971Z,7.00
2023-01-30T16:40:48.623Z,7.00
2023-01-30T16:42:55.410Z,7.00
2023-01-30T16:45:02.868Z,7.10
2023-01-30T16:47:06.400Z,7.10
2023-01-30T16:49:11.506Z,7.00
2023-01-30T16:51:18.771Z,7.00
2023-01-30T16:53:21.783Z,7.00
2023-01-30T16:55:25.821Z,7.00
2023-01-30T16:57:33.320Z,7.00
2023-01-30T16:59:37.335Z,7.00
2023-01-30T17:01:41.212Z,6.90
2023-01-30T17:03:45.876Z,6.90
2023-01-30T17:05:49.676Z,6.90
2023-01-30T17:07:53.150Z,6.90
2023-01-30T17:09:55.685Z,6.90
2023-01-30T17:11:58.190Z,6.90
2023-01-30T17:14:12.257Z,6.90
2023-01-30T17:16:33.965Z,6.90
2023-01-30T17:18:36.634Z,7.00
2023-01-30T17:20:41.222Z,6.90
2023-01-30T17:22:44.933Z,7.00
2023-01-30T17:24:47.435Z,7.00
2023-01-30T17:26:51.117Z,7.00
2023-01-30T17:28:53.671Z,7.00
2023-01-30T17:30:56.266Z,7.00
2023-01-30T17:32:58.843Z,7.00
2023-01-30T17:35:10.381Z,7.00
2023-01-30T17:37:15.018Z,7.00
2023-01-30T17:39:19.311Z,6.90
2023-01-30T17:41:22.653Z,6.90
2023-01-30T17:43:25.146Z,6.90
2023-01-30T17:45:27.775Z,6.90
2023-01-30T17:47:30.405Z,6.90
2023-01-30T17:49:32.927Z,6.90
2023-01-30T17:51:35.529Z,6.90
2023-01-30T17:53:38.040Z,6.90
2023-01-30T17:55:40.568Z,6.90
2023-01-30T17:57:44.361Z,6.90
2023-01-30T17:59:47.011Z,7.00
2023-01-30T18:01:50.578Z,7.00
2023-01-30T18:03:53.161Z,7.00
2023-01-30T18:05:55.690Z,6.90
2023-01-30T18:07:58.195Z,6.90
2023-01-30T18:10:00.840Z,7.00
2023-01-30T18:12:03.654Z,7.00
2023-01-30T18:14:07.260Z,7.00
2023-01-30T18:16:12.901Z,7.00
2023-01-30T18:18:16.619Z,7.10
2023-01-30T18:20:20.134Z,7.10
2023-01-30T18:22:22.951Z,7.00
2023-01-30T18:24:25.488Z,7.10
2023-01-30T18:26:28.432Z,7.10
2023-01-30T18:28:31.085Z,7.00
2023-01-30T18:30:33.644Z,7.00
2023-01-30T18:32:40.626Z,7.00
2023-01-30T18:34:41.275Z,7.00
2023-01-30T18:36:43.790Z,7.00
2023-01-30T18:38:46.709Z,7.00
2023-01-30T18:40:49.243Z,7.10
2023-01-30T18:42:51.736Z,7.00
2023-01-30T18:44:54.404Z,7.00
2023-01-30T18:46:57.541Z,7.00
2023-01-30T18:49:00.463Z,6.90
2023-01-30T18:51:07.200Z,7.00
2023-01-30T18:53:09.723Z,6.90
2023-01-30T18:55:12.258Z,6.90
2023-01-30T18:57:14.745Z,6.90
2023-01-30T18:59:17.262Z,6.90
2023-01-30T19:01:21.250Z,6.90
2023-01-30T19:03:23.979Z,6.90
2023-01-30T19:05:26.488Z,6.90
2023-01-30T19:07:29.007Z,6.80
2023-01-30T19:09:31.532Z,6.80
2023-01-30T19:11:52.446Z,6.90
2023-01-30T19:13:55.696Z,6.80
2023-01-30T19:15:59.223Z,6.70
2023-01-30T19:18:02.022Z,6.70
2023-01-30T19:20:07.721Z,6.70
2023-01-30T19:22:10.337Z,6.70
2023-01-30T19:24:13.850Z,6.70
2023-01-30T19:26:17.330Z,6.70
2023-01-30T19:28:20.036Z,6.70
2023-01-30T19:30:22.786Z,6.70
2023-01-30T19:32:25.920Z,6.70
2023-01-30T19:34:28.900Z,6.70
2023-01-30T19:36:32.619Z,6.70
2023-01-30T19:38:35.239Z,6.70
2023-01-30T19:40:40.551Z,6.70
2023-01-30T19:42:44.560Z,6.60
2023-01-30T19:44:48.748Z,6.60
2023-01-30T19:46:51.616Z,6.60
2023-01-30T19:48:54.381Z,6.60
2023-01-30T19:50:57.545Z,6.60
2023-01-30T19:53:00.286Z,6.50
2023-01-30T19:55:02.992Z,6.50
2023-01-30T19:57:05.535Z,6.50
2023-01-30T19:59:08.738Z,6.50
2023-01-30T20:01:12.106Z,6.50
2023-01-30T20:03:15.709Z,6.50
2023-01-30T20:05:19.838Z,6.50
2023-01-30T20:07:22.396Z,6.50
2023-01-30T20:09:24.973Z,6.50
2023-01-30T20:11:28.106Z,6.50
2023-01-30T20:13:30.630Z,6.50
2023-01-30T20:15:33.172Z,6.40
2023-01-30T20:17:35.874Z,6.40
2023-01-30T20:19:38.386Z,6.30
2023-01-30T20:21:41.385Z,6.30
2023-01-30T20:23:44.658Z,6.20
2023-01-30T20:25:47.251Z,6.10
2023-01-30T20:27:49.944Z,6.10
2023-01-30T20:29:53.276Z,6.00
2023-01-30T20:31:56.102Z,6.00
2023-01-30T20:34:00.415Z,6.00
2023-01-30T20:36:03.037Z,5.90
2023-01-30T20:38:06.132Z,5.90
2023-01-30T20:40:10.529Z,5.80
2023-01-30T20:42:13.526Z,5.80
2023-01-30T20:44:16.038Z,5.70
2023-01-30T20:46:20.094Z,5.70
2023-01-30T20:48:22.594Z,5.70
2023-01-30T20:50:26.919Z,5.60
2023-01-30T20:52:29.443Z,5.60
2023-01-30T20:54:32.145Z,5.50
2023-01-30T20:56:36.160Z,5.60
2023-01-30T20:58:39.661Z,5.60
2023-01-30T21:00:42.293Z,5.60
2023-01-30T21:02:46.736Z,5.70
2023-01-30T21:04:49.295Z,5.60
2023-01-30T21:06:51.796Z,5.70
2023-01-30T21:08:56.661Z,5.70
2023-01-30T21:11:04.509Z,5.60
2023-01-30T21:13:07.253Z,5.70
2023-01-30T21:15:10.191Z,5.60
2023-01-30T21:17:12.736Z,5.60
2023-01-30T21:19:16.527Z,5.60
2023-01-30T21:21:20.662Z,5.60
2023-01-30T21:23:23.185Z,5.60
2023-01-30T21:25:25.677Z,5.70
2023-01-30T21:27:28.184Z,5.70
2023-01-30T21:29:30.686Z,5.70
2023-01-30T21:31:34.145Z,5.70
2023-01-30T21:33:36.892Z,5.70
2023-01-30T21:35:39.384Z,5.70
2023-01-30T21:38:00.103Z,5.60
2023-01-30T21:40:20.899Z,5.70
2023-01-30T21:42:41.560Z,5.70
2023-01-30T21:44:44.077Z,5.70
2023-01-30T21:46:47.243Z,5.70
2023-01-30T21:48:49.764Z,5.70
2023-01-30T21:50:52.287Z,5.70
2023-01-30T21:52:54.885Z,5.70
2023-01-30T21:54:58.205Z,5.60
2023-01-30T21:57:00.747Z,5.70
2023-01-30T21:59:04.760Z,5.70
2023-01-30T22:01:07.681Z,5.70
2023-01-30T22:03:10.245Z,5.70
2023-01-30T22:05:12.785Z,5.70
2023-01-30T22:07:15.327Z,5.70
2023-01-30T22:09:18.209Z,5.70
2023-01-30T22:11:20.862Z,5.70
2023-01-30T22:13:23.511Z,5.70
2023-01-30T22:15:26.034Z,5.70
2023-01-30T22:17:28.920Z,5.70
2023-01-30T22:19:33.295Z,5.70
2023-01-30T22:21:37.435Z,5.70
2023-01-30T22:23:40.512Z,5.80
2023-01-30T22:25:43.115Z,5.70
2023-01-30T22:27:45.648Z,5.70
2023-01-30T22:29:48.242Z,5.70
2023-01-30T22:31:50.837Z,5.70
2023-01-30T22:33:55.185Z,5.80
2023-01-30T22:35:58.170Z,5.80
2023-01-30T22:38:00.670Z,5.70
2023-01-30T22:40:03.223Z,5.70
2023-01-30T22:42:06.847Z,5.70
2023-01-30T22:44:09.797Z,5.70
2023-01-30T22:46:13.318Z,5.70
2023-01-30T22:48:16.241Z,5.70
2023-01-30T22:50:18.937Z,5.80
2023-01-30T22:52:21.439Z,5.70
2023-01-30T22:54:25.058Z,5.60
2023-01-30T22:56:28.769Z,5.60
2023-01-30T22:58:31.553Z,5.60
2023-01-30T23:00:34.055Z,5.60
2023-01-30T23:02:36.946Z,5.60
2023-01-30T23:04:39.562Z,5.60
2023-01-30T23:06:42.464Z,5.60
2023-01-30T23:08:45.956Z,5.60
2023-01-30T23:10:48.488Z,5.50
2023-01-30T23:13:06.491Z,5.50
2023-01-30T23:15:09.739Z,5.50
2023-01-30T23:17:30.412Z,5.50
2023-01-30T23:19:32.990Z,5.50
2023-01-30T23:21:36.022Z,5.50
2023-01-30T23:23:39.168Z,5.40
2023-01-30T23:25:41.976Z,5.40
2023-01-30T23:27:47.927Z,5.50
2023-01-30T23:29:50.811Z,5.40
2023-01-30T23:31:53.331Z,5.40
2023-01-30T23:33:56.391Z,5.30
2023-01-30T23:36:01.071Z,5.30
2023-01-30T23:38:15.892Z,5.30
2023-01-30T23:40:18.484Z,5.20
2023-01-30T23:42:20.989Z,5.20
2023-01-30T23:44:23.615Z,5.00
2023-01-30T23:46:27.009Z,5.00
2023-01-30T23:48:29.541Z,5.00
2023-01-30T23:50:32.030Z,5.00
2023-01-30T23:52:35.061Z,5.00
2023-01-30T23:54:37.755Z,4.90
2023-01-30T23:56:41.454Z,4.80
2023-01-30T23:58:44.607Z,4.80
